Time;durP1;ratioP1;P1;durP2;ratioP2;P2;SDS_P1;SDS_P2;PMS_P1;PMS_P2;Temp;Humidity;BMP_temperature;BMP_pressure;BME280_temperature;BME280_humidity;BME280_pressure;Samples;Min_cycle;Max_cycle;Signal;HPM_P1;HPM_P2
2022/02/14 00:01:02;;;;;;;6.00;2.60;;;9.20;99.90;;;;;;5013108;28;20385;-71
2022/02/14 00:03:30;;;;;;;6.40;2.80;;;9.20;99.90;;;;;;5031202;28;20068;-71
2022/02/14 00:05:57;;;;;;;6.73;2.87;;;9.10;99.90;;;;;;5034595;28;20066;-70
2022/02/14 00:08:25;;;;;;;5.80;2.42;;;9.10;99.90;;;;;;5017149;28;20634;-70
2022/02/14 00:10:51;;;;;;;6.77;2.90;;;9.10;99.90;;;;;;5034574;28;20037;-70
2022/02/14 00:13:17;;;;;;;10.13;3.10;;;9.10;99.90;;;;;;5016658;28;20061;-70
2022/02/14 00:15:43;;;;;;;5.40;2.77;;;9.00;99.90;;;;;;5034366;28;20029;-72
2022/02/14 00:18:10;;;;;;;5.90;2.70;;;9.10;99.90;;;;;;5034342;28;20515;-71
2022/02/14 00:20:35;;;;;;;8.03;2.80;;;9.10;99.90;;;;;;5034379;28;20032;-72
2022/02/14 00:23:02;;;;;;;8.60;2.80;;;9.20;99.90;;;;;;5016675;28;20026;-71
2022/02/14 00:25:28;;;;;;;6.73;2.87;;;9.20;99.90;;;;;;5034237;28;20021;-71
2022/02/14 00:27:54;;;;;;;8.40;3.00;;;9.10;99.90;;;;;;5034116;28;20083;-73
2022/02/14 00:30:20;;;;;;;10.00;3.40;;;9.10;99.90;;;;;;5034265;28;20496;-72
2022/02/14 00:32:46;;;;;;;7.90;2.37;;;9.20;99.90;;;;;;5034500;28;20052;-72
2022/02/14 00:35:14;;;;;;;6.47;2.50;;;9.10;99.90;;;;;;5033900;28;20033;-70
2022/02/14 00:37:40;;;;;;;6.17;2.60;;;9.10;99.90;;;;;;5034018;28;20025;-70
2022/02/14 00:40:07;;;;;;;10.00;2.70;;;9.20;99.90;;;;;;5016305;28;20113;-71
2022/02/14 00:42:36;;;;;;;8.47;2.60;;;9.10;99.90;;;;;;5033985;28;20029;-70
2022/02/14 00:45:02;;;;;;;5.38;2.90;;;9.10;99.90;;;;;;5033753;28;20025;-70
2022/02/14 00:47:28;;;;;;;7.27;2.53;;;9.20;99.90;;;;;;5034037;28;20033;-70
2022/02/14 00:49:54;;;;;;;6.20;2.77;;;9.20;99.90;;;;;;5033708;28;20033;-70
2022/02/14 00:52:21;;;;;;;7.50;2.53;;;9.20;99.90;;;;;;5033788;28;20026;-70
2022/02/14 00:54:47;;;;;;;6.97;2.70;;;9.20;99.90;;;;;;5033551;28;20493;-70
2022/02/14 00:57:13;;;;;;;7.97;2.80;;;9.20;99.90;;;;;;5033785;28;20025;-70
2022/02/14 00:59:39;;;;;;;9.00;2.13;;;9.20;99.90;;;;;;5033657;28;20038;-70
2022/02/14 01:02:05;;;;;;;5.00;2.23;;;9.20;99.90;;;;;;5033489;28;20037;-71
2022/02/14 01:04:31;;;;;;;8.97;2.80;;;9.20;99.90;;;;;;5033308;28;20029;-70
2022/02/14 01:06:57;;;;;;;6.70;2.10;;;9.20;99.90;;;;;;5033452;28;20034;-70
2022/02/14 01:09:23;;;;;;;11.77;2.90;;;9.20;99.90;;;;;;5033324;28;20087;-70
2022/02/14 01:11:49;;;;;;;8.73;2.33;;;9.30;99.90;;;;;;5033390;28;20041;-70
2022/02/14 01:14:15;;;;;;;7.73;2.53;;;9.20;99.90;;;;;;5033196;28;20063;-70
2022/02/14 01:16:41;;;;;;;9.03;2.93;;;9.30;99.90;;;;;;5032388;28;20022;-70
2022/02/14 01:19:07;;;;;;;8.27;2.50;;;9.30;99.90;;;;;;5033266;28;20467;-70
2022/02/14 01:21:33;;;;;;;7.63;2.23;;;9.20;99.90;;;;;;5015497;28;20037;-70
2022/02/14 01:23:59;;;;;;;5.13;1.90;;;9.20;99.90;;;;;;5033045;28;20033;-70
2022/02/14 01:26:25;;;;;;;9.07;2.43;;;9.20;99.90;;;;;;5033149;28;20474;-70
2022/02/14 01:28:51;;;;;;;5.93;2.27;;;9.20;99.90;;;;;;5033095;28;20041;-70
2022/02/14 01:31:17;;;;;;;6.63;2.03;;;9.20;99.90;;;;;;5033076;28;20048;-70
2022/02/14 01:33:43;;;;;;;8.13;2.60;;;9.20;99.90;;;;;;5032876;28;20498;-70
2022/02/14 01:36:09;;;;;;;6.47;2.73;;;9.20;99.90;;;;;;5032945;28;20087;-70
2022/02/14 01:38:36;;;;;;;8.07;2.97;;;9.20;99.90;;;;;;5033174;28;20033;-70
2022/02/14 01:41:02;;;;;;;7.27;2.60;;;9.30;99.90;;;;;;5032957;28;20377;-70
2022/02/14 01:43:28;;;;;;;4.57;2.10;;;9.30;99.90;;;;;;5032920;28;20061;-70
2022/02/14 01:45:54;;;;;;;6.00;2.17;;;9.30;99.90;;;;;;5032900;28;20493;-70
2022/02/14 01:48:20;;;;;;;7.97;2.63;;;9.30;99.90;;;;;;5032768;28;20033;-70
2022/02/14 01:50:47;;;;;;;5.50;2.60;;;9.20;99.90;;;;;;5032570;28;20029;-70
2022/02/14 01:53:14;;;;;;;6.63;2.30;;;9.20;99.90;;;;;;5032583;28;20036;-70
2022/02/14 01:55:41;;;;;;;6.43;2.40;;;9.20;99.90;;;;;;5032539;28;20068;-70
2022/02/14 01:58:07;;;;;;;7.10;2.37;;;9.20;99.90;;;;;;5032452;28;20029;-70
2022/02/14 02:00:33;;;;;;;6.03;2.70;;;9.10;99.90;;;;;;5032643;28;20109;-70
2022/02/14 02:02:59;;;;;;;10.73;2.30;;;9.20;99.90;;;;;;5032609;28;20021;-70
2022/02/14 02:05:25;;;;;;;10.17;2.57;;;9.20;99.90;;;;;;5032277;28;20041;-70
2022/02/14 02:07:52;;;;;;;4.80;2.00;;;9.30;99.90;;;;;;5032425;28;20108;-70
2022/02/14 02:10:19;;;;;;;7.37;2.47;;;9.30;99.90;;;;;;5032480;28;20040;-70
2022/02/14 02:12:52;;;;;;;11.17;2.40;;;9.30;99.90;;;;;;5032422;28;20160;-70
2022/02/14 02:15:19;;;;;;;8.30;2.23;;;9.30;99.90;;;;;;5014835;28;20116;-70
2022/02/14 02:17:45;;;;;;;6.83;2.30;;;9.30;99.90;;;;;;5032521;28;20033;-70
2022/02/14 02:20:14;;;;;;;6.10;2.30;;;9.30;99.90;;;;;;5032291;28;20040;-70
2022/02/14 02:22:42;;;;;;;5.93;2.33;;;9.30;99.90;;;;;;5032322;28;20025;-70
2022/02/14 02:25:08;;;;;;;8.03;3.00;;;9.30;99.90;;;;;;5014227;28;20044;-70
2022/02/14 02:27:34;;;;;;;8.13;2.53;;;9.20;99.90;;;;;;5031764;28;20036;-70
2022/02/14 02:30:04;;;;;;;7.33;2.17;;;9.20;99.90;;;;;;5031913;28;20025;-70
2022/02/14 02:32:32;;;;;;;5.73;2.27;;;9.20;99.90;;;;;;5032013;28;20032;-70
2022/02/14 02:35:01;;;;;;;7.17;2.20;;;9.30;99.90;;;;;;5013734;28;20448;-70
2022/02/14 02:37:27;;;;;;;9.85;2.42;;;9.30;99.90;;;;;;5031737;28;20036;-70
2022/02/14 02:39:53;;;;;;;5.83;2.40;;;9.30;99.90;;;;;;5031675;28;20033;-70
2022/02/14 02:42:22;;;;;;;5.73;2.00;;;9.30;99.90;;;;;;5031746;28;20033;-70
2022/02/14 02:44:49;;;;;;;8.67;2.87;;;9.20;99.90;;;;;;5031525;28;20672;-70
2022/02/14 02:47:16;;;;;;;6.97;2.30;;;9.20;99.90;;;;;;5031557;28;20276;-70
2022/02/14 02:49:43;;;;;;;7.23;2.37;;;9.40;99.90;;;;;;5031346;28;20585;-70
2022/02/14 02:52:10;;;;;;;6.67;2.17;;;9.40;99.90;;;;;;5013899;28;20489;-70
2022/02/14 02:54:37;;;;;;;5.93;2.20;;;9.40;99.90;;;;;;5031287;28;20091;-70
2022/02/14 02:57:04;;;;;;;6.93;2.30;;;9.40;99.90;;;;;;5031433;28;20037;-70
2022/02/14 02:59:35;;;;;;;9.10;2.13;;;9.40;99.90;;;;;;5031350;28;20037;-70
2022/02/14 03:02:01;;;;;;;6.40;2.60;;;9.40;99.90;;;;;;5031351;28;20025;-70
2022/02/14 03:04:27;;;;;;;6.03;2.13;;;9.40;99.90;;;;;;5031106;28;20029;-70
2022/02/14 03:06:53;;;;;;;3.70;1.93;;;9.40;99.90;;;;;;5031270;28;20059;-70
2022/02/14 03:09:19;;;;;;;5.13;1.97;;;9.40;99.90;;;;;;5031666;28;20402;-70
2022/02/14 03:11:45;;;;;;;7.57;2.57;;;9.30;99.90;;;;;;5031168;28;20167;-70
2022/02/14 03:14:13;;;;;;;7.63;2.70;;;9.20;99.90;;;;;;5029732;28;20675;-70
2022/02/14 03:16:39;;;;;;;6.33;2.20;;;9.20;99.90;;;;;;5013385;28;20040;-70
2022/02/14 03:19:06;;;;;;;6.23;1.83;;;9.30;99.90;;;;;;5030929;28;20033;-70
2022/02/14 03:21:33;;;;;;;8.10;2.10;;;9.20;99.90;;;;;;5031069;28;20056;-70
2022/02/14 03:24:00;;;;;;;7.50;2.20;;;9.30;99.90;;;;;;5030926;28;20100;-70
2022/02/14 03:26:26;;;;;;;5.87;2.40;;;9.40;99.90;;;;;;5031074;28;20052;-70
2022/02/14 03:28:56;;;;;;;6.27;2.20;;;9.40;99.90;;;;;;5030957;28;20041;-70
2022/02/14 03:31:22;;;;;;;5.63;2.00;;;9.30;99.90;;;;;;5031104;28;20044;-70
2022/02/14 03:33:49;;;;;;;6.13;2.30;;;9.30;99.90;;;;;;5030655;28;20102;-70
2022/02/14 03:36:17;;;;;;;6.20;2.27;;;9.40;99.90;;;;;;5031129;28;20052;-70
2022/02/14 03:38:43;;;;;;;5.87;1.90;;;9.30;99.90;;;;;;5012708;28;20034;-71
2022/02/14 03:41:09;;;;;;;6.43;2.33;;;9.40;99.90;;;;;;5030360;28;20492;-70
2022/02/14 03:43:35;;;;;;;9.70;2.67;;;9.40;99.90;;;;;;5030393;28;20107;-70
2022/02/14 03:46:01;;;;;;;6.80;1.80;;;9.30;99.90;;;;;;5030814;28;20453;-70
2022/02/14 03:48:27;;;;;;;9.33;2.30;;;9.20;99.90;;;;;;5030443;28;20434;-69
2022/02/14 03:50:55;;;;;;;6.00;2.10;;;9.30;99.90;;;;;;5030594;28;20057;-70
2022/02/14 03:53:26;;;;;;;7.67;2.27;;;9.30;99.90;;;;;;5030504;28;20107;-70
2022/02/14 03:55:52;;;;;;;7.53;2.43;;;9.30;99.90;;;;;;5030649;28;20060;-69
2022/02/14 03:58:19;;;;;;;7.43;2.40;;;9.40;99.90;;;;;;5030671;28;20065;-71
2022/02/14 04:00:45;;;;;;;4.23;1.90;;;9.30;99.90;;;;;;5030670;28;20567;-70
2022/02/14 04:03:11;;;;;;;5.50;1.90;;;9.30;99.90;;;;;;5030732;28;20049;-70
2022/02/14 04:05:37;;;;;;;4.97;1.90;;;9.40;99.90;;;;;;5030368;28;20057;-70
2022/02/14 04:08:03;;;;;;;8.00;2.63;;;9.40;99.90;;;;;;5030694;28;20101;-70
2022/02/14 04:10:30;;;;;;;5.80;2.20;;;9.30;99.90;;;;;;5030533;28;20026;-70
2022/02/14 04:12:56;;;;;;;7.27;2.00;;;9.40;99.90;;;;;;5030502;28;20033;-72
2022/02/14 04:15:23;;;;;;;4.77;1.77;;;9.40;99.90;;;;;;5029012;28;20533;-71
2022/02/14 04:17:49;;;;;;;7.33;2.27;;;9.40;99.90;;;;;;5012582;28;20029;-71
2022/02/14 04:20:16;;;;;;;6.77;1.90;;;9.40;99.90;;;;;;5030701;28;20026;-70
2022/02/14 04:22:43;;;;;;;4.90;2.10;;;9.40;99.90;;;;;;5030489;28;20383;-72
2022/02/14 04:25:14;;;;;;;6.17;1.93;;;9.40;99.90;;;;;;5030321;28;20030;-70
2022/02/14 04:27:41;;;;;;;8.50;2.40;;;9.30;99.90;;;;;;5030417;28;20095;-70
2022/02/14 04:30:09;;;;;;;5.40;1.90;;;9.30;99.90;;;;;;5030439;28;20034;-70
2022/02/14 04:32:35;;;;;;;6.20;1.80;;;9.30;99.90;;;;;;5030428;28;20038;-70
2022/02/14 04:35:02;;;;;;;4.97;2.20;;;9.40;99.90;;;;;;5030166;28;20071;-71
2022/02/14 04:37:29;;;;;;;5.00;2.10;;;9.40;99.90;;;;;;5030572;28;20395;-71
2022/02/14 04:39:55;;;;;;;6.23;2.07;;;9.40;99.90;;;;;;5012694;28;20032;-71
2022/02/14 04:42:21;;;;;;;7.27;2.10;;;9.30;99.90;;;;;;5030564;28;20022;-71
2022/02/14 04:44:47;;;;;;;5.93;2.10;;;9.40;99.90;;;;;;5030193;28;20364;-71
2022/02/14 04:47:13;;;;;;;4.30;1.80;;;9.40;99.90;;;;;;5030308;28;20429;-70
2022/02/14 04:49:39;;;;;;;6.17;1.90;;;9.40;99.90;;;;;;5030215;28;20025;-70
2022/02/14 04:52:05;;;;;;;6.80;1.80;;;9.40;99.90;;;;;;5033181;28;20025;-71
2022/02/14 04:54:31;;;;;;;6.53;2.30;;;9.40;99.90;;;;;;5033630;28;20117;-71
2022/02/14 04:56:57;;;;;;;6.13;2.00;;;9.30;99.90;;;;;;5033507;28;20025;-70
2022/02/14 04:59:23;;;;;;;4.43;1.60;;;9.40;99.90;;;;;;5033697;28;20025;-70
2022/02/14 05:01:49;;;;;;;5.10;2.00;;;9.40;99.90;;;;;;5033708;28;20021;-70
2022/02/14 05:04:17;;;;;;;7.30;1.93;;;9.40;99.90;;;;;;5033351;28;20094;-71
2022/02/14 05:06:43;;;;;;;6.37;2.33;;;9.40;99.90;;;;;;5033570;28;20044;-70
2022/02/14 05:09:09;;;;;;;6.10;1.90;;;9.40;99.90;;;;;;5033727;28;20172;-70
2022/02/14 05:11:35;;;;;;;6.23;2.43;;;9.40;99.90;;;;;;5033236;28;20076;-71
2022/02/14 05:14:01;;;;;;;5.97;2.23;;;9.40;99.90;;;;;;5032098;28;20017;-71
2022/02/14 05:16:27;;;;;;;7.67;2.90;;;9.30;99.90;;;;;;5033199;28;20083;-71
2022/02/14 05:18:53;;;;;;;6.37;2.23;;;9.30;99.90;;;;;;5032132;28;20025;-71
2022/02/14 05:21:20;;;;;;;6.17;2.47;;;9.30;99.90;;;;;;5033370;28;20034;-69
2022/02/14 05:23:46;;;;;;;5.03;2.00;;;9.30;99.90;;;;;;5033034;28;20029;-70
2022/02/14 05:26:12;;;;;;;6.20;2.13;;;9.30;99.90;;;;;;5033121;28;20033;-70
2022/02/14 05:28:39;;;;;;;4.60;2.10;;;9.40;99.90;;;;;;5033083;28;20124;-70
2022/02/14 05:31:05;;;;;;;4.53;2.00;;;9.30;99.90;;;;;;5033189;28;20516;-70
2022/02/14 05:33:31;;;;;;;4.50;1.80;;;9.30;99.90;;;;;;5033074;28;20042;-70
2022/02/14 05:35:57;;;;;;;6.83;2.27;;;9.30;99.90;;;;;;5015487;28;20041;-71
2022/02/14 05:38:24;;;;;;;4.70;1.93;;;9.30;99.90;;;;;;5032696;28;20029;-71
2022/02/14 05:40:50;;;;;;;8.53;2.27;;;9.30;99.90;;;;;;5050358;28;20043;-70
2022/02/14 05:43:16;;;;;;;4.83;1.77;;;9.30;99.90;;;;;;5042752;28;20397;-69
2022/02/14 05:45:42;;;;;;;4.23;1.90;;;9.30;99.90;;;;;;5033419;28;20033;-72
2022/02/14 05:48:08;;;;;;;8.03;2.00;;;9.40;99.90;;;;;;5051063;28;20059;-72
2022/02/14 05:50:35;;;;;;;4.33;1.60;;;9.40;99.90;;;;;;5050876;28;20040;-72
2022/02/14 05:53:01;;;;;;;6.80;1.90;;;9.40;99.90;;;;;;5036421;28;20036;-71
2022/02/14 05:55:26;;;;;;;7.43;1.90;;;9.40;99.90;;;;;;5030157;28;20037;-73
2022/02/14 05:57:53;;;;;;;8.03;2.00;;;9.40;99.90;;;;;;5012833;28;20022;-72
2022/02/14 06:00:19;;;;;;;5.90;2.03;;;9.50;99.90;;;;;;5030382;28;20040;-70
2022/02/14 06:02:45;;;;;;;5.03;2.10;;;9.40;99.90;;;;;;5032596;28;20035;-71
2022/02/14 06:05:11;;;;;;;3.77;1.63;;;9.50;99.90;;;;;;5050104;28;20040;-72
2022/02/14 06:07:37;;;;;;;7.10;1.90;;;9.50;99.90;;;;;;5024902;28;20442;-71
2022/02/14 06:10:03;;;;;;;6.37;2.23;;;9.40;99.90;;;;;;5049985;28;20033;-71
2022/02/14 06:12:29;;;;;;;8.17;3.20;;;9.40;99.90;;;;;;5049652;28;20413;-71
2022/02/14 06:14:57;;;;;;;6.73;2.20;;;9.40;99.90;;;;;;5050491;28;20028;-71
2022/02/14 06:17:23;;;;;;;4.47;1.83;;;9.40;99.90;;;;;;5037987;28;20116;-71
2022/02/14 06:19:49;;;;;;;5.13;1.90;;;9.40;99.90;;;;;;5030182;28;20057;-71
2022/02/14 06:22:15;;;;;;;4.23;1.70;;;9.40;99.90;;;;;;5029958;28;20102;-70
2022/02/14 06:24:46;;;;;;;5.67;1.70;;;9.40;99.90;;;;;;5054970;22;20048;-86
2022/02/14 06:34:43;;;;;;;4.93;2.07;;;11.70;99.90;;;;;;4997913;23;20121;-72
2022/02/14 06:37:09;;;;;;;5.07;2.13;;;12.50;99.90;;;;;;5029702;28;20475;-72
2022/02/14 06:39:35;;;;;;;4.30;1.47;;;12.80;99.90;;;;;;5030700;28;20030;-70
2022/02/14 06:42:01;;;;;;;4.10;2.10;;;12.80;99.90;;;;;;5030273;28;20075;-70
2022/02/14 06:44:27;;;;;;;6.13;2.40;;;12.20;99.90;;;;;;5030399;28;20075;-70
2022/02/14 06:46:54;;;;;;;5.03;2.00;;;11.70;99.90;;;;;;5030501;28;20544;-70
2022/02/14 06:49:20;;;;;;;7.33;2.40;;;11.40;99.90;;;;;;5030555;28;20133;-70
2022/02/14 06:51:46;;;;;;;4.57;1.67;;;11.10;99.90;;;;;;5030347;28;20124;-70
2022/02/14 06:54:11;;;;;;;4.10;1.70;;;10.80;99.90;;;;;;5030084;28;20072;-70
2022/02/14 06:56:37;;;;;;;5.10;1.70;;;10.60;99.90;;;;;;5030525;28;20132;-71
2022/02/14 06:59:03;;;;;;;6.87;2.10;;;10.40;99.90;;;;;;5030486;28;20029;-71
2022/02/14 07:01:29;;;;;;;4.27;1.80;;;10.40;99.90;;;;;;5030527;28;20461;-71
2022/02/14 07:03:55;;;;;;;3.60;1.73;;;10.30;99.90;;;;;;5012024;28;20474;-70
2022/02/14 07:06:21;;;;;;;4.63;1.60;;;10.20;99.90;;;;;;5030150;28;20029;-71
2022/02/14 07:08:48;;;;;;;5.20;1.83;;;10.10;99.90;;;;;;5030000;28;20037;-71
2022/02/14 07:11:14;;;;;;;5.57;1.80;;;10.10;99.90;;;;;;5029806;28;20064;-71
2022/02/14 07:13:40;;;;;;;4.93;1.60;;;10.00;99.90;;;;;;5028402;28;20040;-71
2022/02/14 07:16:06;;;;;;;8.97;2.00;;;10.00;99.90;;;;;;5029863;28;20029;-69
2022/02/14 07:18:31;;;;;;;6.60;1.77;;;10.00;99.90;;;;;;5029666;28;20037;-69
2022/02/14 07:20:57;;;;;;;6.37;1.63;;;9.90;99.90;;;;;;5030763;28;20025;-71
2022/02/14 07:23:23;;;;;;;3.70;1.40;;;9.90;99.90;;;;;;5030240;28;20049;-70
2022/02/14 07:25:50;;;;;;;4.13;1.47;;;9.90;99.90;;;;;;5012387;28;20429;-70
2022/02/14 07:28:16;;;;;;;5.47;1.87;;;9.90;99.90;;;;;;5028919;28;20095;-70
2022/02/14 07:30:42;;;;;;;4.50;1.90;;;9.90;99.90;;;;;;5030122;28;20033;-70
2022/02/14 07:33:08;;;;;;;5.30;1.80;;;9.90;99.90;;;;;;5029666;28;20033;-70
2022/02/14 07:35:34;;;;;;;6.47;1.73;;;9.90;99.90;;;;;;5029542;28;20060;-71
2022/02/14 07:38:00;;;;;;;5.33;1.60;;;9.90;99.90;;;;;;5029514;28;20412;-71
2022/02/14 07:40:26;;;;;;;4.27;1.83;;;9.90;99.90;;;;;;5012074;28;20025;-71
2022/02/14 07:42:52;;;;;;;3.70;1.50;;;9.90;99.90;;;;;;5011543;28;20080;-71
2022/02/14 07:45:19;;;;;;;4.70;1.70;;;9.90;99.90;;;;;;5012078;28;20352;-70
2022/02/14 07:47:45;;;;;;;5.27;2.07;;;9.90;99.90;;;;;;5011901;28;20451;-71
2022/02/14 07:50:14;;;;;;;8.00;2.10;;;10.00;99.90;;;;;;5030172;28;20405;-71
2022/02/14 07:52:40;;;;;;;6.50;2.07;;;9.90;99.90;;;;;;5011598;28;20098;-71
2022/02/14 07:55:07;;;;;;;4.90;1.70;;;9.90;99.90;;;;;;5029946;28;20064;-71
2022/02/14 07:57:33;;;;;;;3.43;1.50;;;10.00;99.90;;;;;;5029216;28;20505;-71
2022/02/14 08:00:01;;;;;;;3.27;1.20;;;10.00;99.90;;;;;;5030077;28;20469;-71
2022/02/14 08:02:27;;;;;;;3.83;2.00;;;10.00;99.90;;;;;;5012277;28;20032;-71
2022/02/14 08:04:53;;;;;;;4.43;1.47;;;10.00;99.90;;;;;;5029722;28;20021;-71
2022/02/14 08:07:19;;;;;;;3.50;1.50;;;10.00;99.90;;;;;;5029679;28;20514;-70
2022/02/14 08:09:46;;;;;;;4.63;1.70;;;10.00;99.90;;;;;;5030520;28;20033;-70
2022/02/14 08:12:12;;;;;;;7.20;1.97;;;10.00;99.90;;;;;;5030127;28;20028;-70
2022/02/14 08:14:40;;;;;;;8.20;1.70;;;10.00;99.90;;;;;;5029922;28;20541;-70
2022/02/14 08:17:07;;;;;;;7.03;1.87;;;10.00;99.90;;;;;;5029572;28;20389;-70
2022/02/14 08:19:34;;;;;;;5.83;2.10;;;10.10;99.90;;;;;;5029244;28;20025;-69
2022/02/14 08:21:59;;;;;;;8.87;1.93;;;10.20;99.90;;;;;;5029384;28;20025;-70
2022/02/14 08:24:26;;;;;;;5.80;2.03;;;10.20;99.90;;;;;;5030091;28;20075;-70
2022/02/14 08:26:52;;;;;;;5.83;1.80;;;10.30;99.90;;;;;;5033262;28;20667;-71
2022/02/14 08:29:18;;;;;;;9.77;3.20;;;10.30;99.90;;;;;;5033528;28;20033;-71
2022/02/14 08:31:45;;;;;;;6.30;2.40;;;10.40;99.90;;;;;;5033101;28;20435;-70
2022/02/14 08:34:13;;;;;;;7.50;2.53;;;10.50;99.90;;;;;;5032895;28;20095;-71
2022/02/14 08:36:39;;;;;;;7.93;1.60;;;10.60;99.90;;;;;;5032904;28;20104;-70
2022/02/14 08:39:05;;;;;;;5.33;1.70;;;10.60;99.90;;;;;;5033324;28;20116;-72
2022/02/14 08:41:32;;;;;;;4.10;1.30;;;10.60;99.90;;;;;;5032987;28;20029;-72
2022/02/14 08:43:59;;;;;;;6.67;1.50;;;10.60;99.90;;;;;;5032883;28;20022;-72
2022/02/14 08:46:26;;;;;;;5.90;1.47;;;10.50;99.90;;;;;;5032755;28;20033;-72
2022/02/14 08:48:53;;;;;;;2.83;1.40;;;10.50;99.90;;;;;;5032475;28;20033;-71
2022/02/14 08:51:20;;;;;;;5.33;1.50;;;10.50;99.90;;;;;;5032594;28;20041;-71
2022/02/14 08:53:47;;;;;;;5.50;1.20;;;10.50;99.90;;;;;;5032817;28;20394;-71
2022/02/14 08:56:13;;;;;;;3.30;1.50;;;10.50;99.90;;;;;;5033002;28;20151;-71
2022/02/14 08:58:40;;;;;;;3.07;1.20;;;10.50;99.90;;;;;;5014154;28;20029;-72
2022/02/14 09:01:07;;;;;;;3.57;1.27;;;10.50;99.90;;;;;;5032579;28;20072;-71
2022/02/14 09:03:33;;;;;;;3.37;1.63;;;10.70;99.90;;;;;;5032114;28;20056;-72
2022/02/14 09:05:59;;;;;;;3.17;1.10;;;10.90;99.90;;;;;;5032346;28;20021;-73
2022/02/14 09:08:25;;;;;;;4.77;1.27;;;10.90;99.90;;;;;;5014615;28;20033;-72
2022/02/14 09:10:52;;;;;;;5.97;1.63;;;10.90;99.90;;;;;;5032154;28;20033;-72
2022/02/14 09:13:19;;;;;;;4.10;1.63;;;10.90;99.90;;;;;;5032093;28;20056;-72
2022/02/14 09:15:45;;;;;;;3.93;1.10;;;10.90;99.90;;;;;;5032735;28;20088;-71
2022/02/14 09:18:11;;;;;;;3.80;1.20;;;10.90;99.90;;;;;;5032790;28;20029;-71
2022/02/14 09:20:37;;;;;;;8.67;1.80;;;11.00;99.90;;;;;;5032292;28;20052;-71
2022/02/14 09:23:04;;;;;;;5.90;1.40;;;11.00;99.90;;;;;;5032005;28;20116;-71
2022/02/14 09:25:35;;;;;;;3.37;1.30;;;11.10;99.90;;;;;;5032258;28;20109;-72
2022/02/14 09:28:02;;;;;;;2.57;1.00;;;11.20;99.90;;;;;;5032108;28;20366;-71
2022/02/14 09:30:28;;;;;;;4.27;1.20;;;11.20;99.90;;;;;;5033268;28;20037;-72
2022/02/14 09:32:54;;;;;;;2.73;1.30;;;11.20;99.90;;;;;;5032334;28;20367;-70
2022/02/14 09:35:26;;;;;;;6.10;1.10;;;11.10;99.90;;;;;;5031283;28;20033;-72
2022/02/14 09:38:03;;;;;;;3.97;1.17;;;11.10;99.90;;;;;;5030994;28;20095;-72
2022/02/14 09:40:30;;;;;;;3.67;1.17;;;11.10;99.90;;;;;;5032046;28;20030;-69
2022/02/14 09:42:58;;;;;;;3.97;1.20;;;11.10;99.90;;;;;;5013155;28;20491;-70
2022/02/14 09:45:26;;;;;;;3.15;1.10;;;11.10;99.90;;;;;;5014154;28;20033;-71
2022/02/14 09:47:58;;;;;;;2.77;1.17;;;11.10;99.90;;;;;;5031195;28;20037;-71
2022/02/14 09:50:25;;;;;;;6.37;1.50;;;11.10;99.90;;;;;;5031741;28;20026;-72
2022/02/14 09:52:51;;;;;;;4.43;1.50;;;11.10;99.90;;;;;;5031558;28;20057;-70
2022/02/14 09:55:18;;;;;;;5.80;1.50;;;11.10;99.90;;;;;;5013463;28;20080;-70
2022/02/14 09:57:44;;;;;;;2.73;1.13;;;11.20;99.90;;;;;;5030919;28;20132;-70
2022/02/14 10:00:10;;;;;;;3.53;1.10;;;11.30;99.90;;;;;;5031058;28;20474;-72
2022/02/14 10:02:37;;;;;;;9.27;1.87;;;11.30;99.90;;;;;;5031020;28;20497;-71
2022/02/14 10:05:18;;;;;;;3.37;1.40;;;11.30;99.90;;;;;;5031383;28;20025;-72
2022/02/14 10:07:46;;;;;;;2.43;1.20;;;11.30;99.90;;;;;;5031162;28;20059;-69
2022/02/14 10:10:18;;;;;;;3.93;1.23;;;11.30;99.90;;;;;;5013067;28;20140;-68
2022/02/14 10:12:52;;;;;;;4.27;1.37;;;11.30;99.90;;;;;;5030596;28;20272;-71
2022/02/14 10:15:19;;;;;;;5.27;1.20;;;11.20;99.90;;;;;;5030870;28;20029;-72
2022/02/14 10:17:47;;;;;;;2.53;1.20;;;11.20;99.90;;;;;;5030691;28;20033;-74
2022/02/14 10:20:16;;;;;;;4.95;1.20;;;11.20;99.90;;;;;;5030828;28;20199;-72
2022/02/14 10:22:54;;;;;;;4.35;1.17;;;11.20;99.90;;;;;;5030358;28;20030;-72
2022/02/14 10:25:34;;;;;;;2.97;1.17;;;11.20;99.90;;;;;;4996463;28;20032;-74
2022/02/14 10:28:14;;;;;;;3.13;1.30;;;11.10;99.90;;;;;;5012467;28;20038;-74
2022/02/14 10:30:56;;;;;;;2.30;1.30;;;11.10;99.90;;;;;;5030587;28;20462;-73
2022/02/14 10:33:24;;;;;;;3.53;1.37;;;11.10;99.90;;;;;;5030376;28;20037;-72
2022/02/14 10:35:50;;;;;;;4.47;1.60;;;11.00;99.90;;;;;;5030322;28;20091;-72
2022/02/14 10:38:21;;;;;;;6.00;1.70;;;11.00;99.90;;;;;;5030199;28;20091;-72
2022/02/14 10:40:47;;;;;;;4.97;1.60;;;11.00;99.90;;;;;;5030862;28;20053;-73
2022/02/14 10:43:35;;;;;;;2.93;1.43;;;11.00;99.90;;;;;;5012183;28;20075;-72
2022/02/14 10:46:01;;;;;;;5.40;1.50;;;11.00;99.90;;;;;;5012648;28;20212;-71
2022/02/14 10:48:40;;;;;;;3.50;1.30;;;11.10;99.90;;;;;;5030208;28;20037;-70
2022/02/14 10:51:15;;;;;;;6.70;1.30;;;11.10;99.90;;;;;;5030803;28;20129;-70
2022/02/14 10:53:46;;;;;;;2.57;1.07;;;11.10;99.90;;;;;;5028803;28;20034;-69
2022/02/14 10:56:14;;;;;;;4.47;1.00;;;11.10;99.90;;;;;;5029618;28;20120;-70
2022/02/14 10:58:41;;;;;;;2.28;1.08;;;11.10;99.90;;;;;;5011071;28;20025;-70
2022/02/14 11:01:12;;;;;;;1.63;0.87;;;11.10;99.90;;;;;;5028477;28;20385;-69
2022/02/14 11:03:39;;;;;;;5.47;1.00;;;11.20;99.90;;;;;;5030374;28;20049;-68
2022/02/14 11:06:06;;;;;;;2.47;0.90;;;11.10;99.90;;;;;;5030337;28;20052;-71
2022/02/14 11:08:37;;;;;;;4.03;1.20;;;11.10;99.90;;;;;;5011639;28;20030;-71
2022/02/14 11:11:05;;;;;;;5.07;1.30;;;11.10;99.90;;;;;;5029592;28;20048;-71
2022/02/14 11:13:33;;;;;;;3.87;1.20;;;11.20;99.90;;;;;;5029029;28;20053;-70
2022/02/14 11:16:01;;;;;;;4.27;1.40;;;11.10;99.90;;;;;;5029373;28;20033;-70
2022/02/14 11:18:38;;;;;;;;;;;11.10;99.90;;;;;;5013327;28;20049;-71
2022/02/14 11:21:04;;;;;;;4.00;1.27;;;11.10;99.90;;;;;;5030515;28;19909;-71
2022/02/14 11:23:39;;;;;;;3.30;1.00;;;11.20;99.90;;;;;;5030109;28;20076;-70
2022/02/14 11:26:17;;;;;;;2.73;1.10;;;11.20;99.90;;;;;;5030599;28;20084;-71
2022/02/14 11:28:53;;;;;;;4.87;1.23;;;11.30;99.90;;;;;;5030134;28;20112;-72
2022/02/14 11:31:26;;;;;;;2.90;1.13;;;11.20;99.90;;;;;;5030432;28;20041;-72
2022/02/14 11:34:02;;;;;;;5.50;1.00;;;11.20;99.90;;;;;;5030094;28;20034;-71
2022/02/14 11:36:31;;;;;;;5.03;1.47;;;11.20;99.90;;;;;;5030258;28;20068;-71
2022/02/14 11:38:59;;;;;;;2.55;1.00;;;11.20;99.90;;;;;;5030292;28;20425;-72
2022/02/14 11:41:40;;;;;;;5.15;1.60;;;11.20;99.90;;;;;;5012577;28;20414;-71
2022/02/14 11:44:21;;;;;;;8.07;1.47;;;11.20;99.90;;;;;;5029565;28;20021;-71
2022/02/14 11:47:11;;;;;;;3.53;0.90;;;11.20;99.90;;;;;;5030037;28;20490;-71
2022/02/14 11:49:40;;;;;;;2.87;0.93;;;11.20;99.90;;;;;;5024735;28;20478;-71
2022/02/14 11:52:34;;;;;;;7.53;1.42;;;11.20;99.90;;;;;;5030052;28;20033;-71
2022/02/14 11:55:06;;;;;;;4.60;1.20;;;11.20;99.90;;;;;;4996135;28;20033;-72
2022/02/14 11:57:45;;;;;;;3.97;1.30;;;11.20;99.90;;;;;;5029914;28;20037;-71
2022/02/14 12:00:14;;;;;;;3.03;0.82;;;11.20;99.90;;;;;;5014278;28;20033;-72
2022/02/14 12:02:53;;;;;;;2.13;0.70;;;11.10;99.90;;;;;;5034404;28;20032;-72
2022/02/14 12:05:44;;;;;;;2.92;0.95;;;11.10;99.90;;;;;;5034337;28;20044;-71
2022/02/14 12:08:11;;;;;;;3.93;1.00;;;11.10;99.90;;;;;;5034159;28;20025;-72
2022/02/14 12:10:48;;;;;;;4.73;1.10;;;11.00;99.90;;;;;;5034252;28;20036;-71
2022/02/14 12:13:17;;;;;;;4.00;1.00;;;11.00;99.90;;;;;;5033609;28;20357;-71
2022/02/14 12:21:16;;;;;;;4.33;1.00;;;11.00;99.90;;;;;;5016127;28;20371;-72
2022/02/14 12:23:51;;;;;;;5.73;1.20;;;11.10;99.90;;;;;;5033469;28;20026;-71
2022/02/14 12:26:19;;;;;;;4.00;1.03;;;11.10;99.90;;;;;;5033840;28;20030;-71
2022/02/14 12:29:31;;;;;;;4.70;1.10;;;11.10;99.90;;;;;;5033359;28;20324;-71
2022/02/14 12:31:41;;;;;;;3.30;0.75;;;11.10;99.90;;;;;;5033966;28;20398;-72
2022/02/14 12:34:07;;;;;;;3.93;0.90;;;11.10;99.90;;;;;;5015587;28;20481;-71
2022/02/14 12:36:33;;;;;;;4.90;1.00;;;11.10;99.90;;;;;;5033463;28;20026;-71
2022/02/14 12:38:58;;;;;;;3.57;0.93;;;11.10;99.90;;;;;;5033485;28;20029;-72
2022/02/14 12:41:24;;;;;;;5.20;1.37;;;11.10;99.90;;;;;;5033621;28;20485;-71
2022/02/14 12:43:50;;;;;;;5.60;1.37;;;11.00;99.90;;;;;;5015187;28;20024;-71
2022/02/14 12:46:20;;;;;;;5.77;1.43;;;11.00;99.90;;;;;;5033404;28;20036;-71
2022/02/14 12:48:49;;;;;;;4.20;1.20;;;10.90;99.90;;;;;;5033304;28;20450;-71
2022/02/14 12:51:29;;;;;;;3.42;1.50;;;11.00;99.90;;;;;;5033295;28;20038;-72
2022/02/14 12:53:56;;;;;;;6.03;1.70;;;11.00;99.90;;;;;;5033016;28;20482;-71
2022/02/14 12:56:23;;;;;;;5.47;1.47;;;11.00;99.90;;;;;;5033287;28;20108;-71
2022/02/14 12:58:55;;;;;;;9.07;2.33;;;11.00;99.90;;;;;;5032646;28;20273;-71
2022/02/14 13:01:33;;;;;;;7.33;1.60;;;11.00;99.90;;;;;;5033042;28;20120;-71
2022/02/14 13:04:01;;;;;;;3.70;1.37;;;11.00;99.90;;;;;;5032832;28;20411;-71
2022/02/14 13:06:42;;;;;;;3.90;1.50;;;11.00;99.90;;;;;;5032988;28;20052;-71
2022/02/14 13:09:22;;;;;;;6.37;1.63;;;11.00;99.90;;;;;;5032888;28;20287;-72